Airport Name : Port Hardy

Other Name : Port Hardy

ICAO : CYZT

IATA : YZT

FAA :

Latitude : 50.680556

Longitude : -127.366667

Country : Canada

Local Date and Time : 24 Sep 2020 03:21

 

TAF (Terminal Aerodrome Forecast)

TAF CYZT 240638Z 2407/2419 14006KT P6SM FEW008 SCT015 BKN070 TEMPO 2407/2419 4SM SHRA BR SCT008 BKN015 RMK NXT FCST BY 241300Z

 

METAR (METeorological Aerodrome Report)

CYZT 241000Z 15006KT 10SM -SHRA BKN078 12/11 A2955 RMK AC6 CVCTV CLD EMBD SLP007 DENSITY ALT 100FT

CYZT 240900Z 13005KT 10SM -SHRA BKN064 OVC120 11/11 A2953 RMK SC5AC3 SLP000 DENSITY ALT 100FT

CYZT 240821Z VRB02KT 15SM -SHRA SCT062 BKN120 11/11 A2951 RMK SC3AC3 SLP994 DENSITY ALT 200FT

CYZT 240800Z 09004KT 060V190 15SM BKN062 BKN120 11/11 A2951 RMK SC5AC2 SLP993 DENSITY ALT 100FT

CYZT 240700Z 17006KT 15SM FEW071 BKN120 11/11 A2949 RMK AC2AC3 SLP988 DENSITY ALT 200FT

To Charter a Jet Click here.